CST424X SAEZ-SCEL
Flight info
| Callsign | CST424X |
|---|---|
| Flight time | 1h 32m |
| Altitude | 34000 |
| Route | URINO1E URINO UL405 TOSOR UT687 UMKAL UMKAL7C |
| Aircraft | B77L/H-SDE1E2E3FGHIJ2J3J4J5M1RWXY/LB1D1 |
Departure
| Time | 2026-05-07 17:35 |
|---|---|
| Airport | Ezeiza International Airport - Ministro Pistarini (SAEZ) |
Arrival
| Time | 2026-05-07 19:08 |
|---|---|
| Airport | Comodoro Arturo Merino Benítez International Airport (SCEL) |
| Time | Latitude | Longitude | Altitude | Speed | Heading |
|---|---|---|---|---|---|
| 2026-05-07 17:15 | -34.80887 | -58.53746 | 84 ft | 0 kts | 252° |
| 2026-05-07 17:25 | -34.80886 | -58.53741 | 80 ft | 3 kts | 252° |
| 2026-05-07 17:25 | -34.80878 | -58.53710 | 84 ft | 4 kts | 252° |
| 2026-05-07 17:25 | -34.80870 | -58.53679 | 85 ft | 4 kts | 252° |
| 2026-05-07 17:25 | -34.80867 | -58.53667 | 86 ft | 0 kts | 254° |
| 2026-05-07 17:26 | -34.80869 | -58.53670 | 86 ft | 1 kts | 242° |
| 2026-05-07 17:27 | -34.80874 | -58.53673 | 80 ft | 1 kts | 213° |
| 2026-05-07 17:27 | -34.80888 | -58.53667 | 86 ft | 4 kts | 147° |
| 2026-05-07 17:27 | -34.80894 | -58.53661 | 84 ft | 0 kts | 141° |
| 2026-05-07 17:30 | -34.80899 | -58.53614 | 84 ft | 15 kts | 86° |
| 2026-05-07 17:30 | -34.80868 | -58.53431 | 89 ft | 24 kts | 84° |
| 2026-05-07 17:30 | -34.80989 | -58.53327 | 92 ft | 24 kts | 167° |
| 2026-05-07 17:30 | -34.81152 | -58.53284 | 90 ft | 24 kts | 168° |
| 2026-05-07 17:31 | -34.81311 | -58.53230 | 91 ft | 24 kts | 163° |
| 2026-05-07 17:31 | -34.81471 | -58.53173 | 87 ft | 24 kts | 164° |
| 2026-05-07 17:31 | -34.81632 | -58.53118 | 87 ft | 24 kts | 164° |
| 2026-05-07 17:31 | -34.81792 | -58.53063 | 87 ft | 24 kts | 164° |
| 2026-05-07 17:32 | -34.81953 | -58.53007 | 88 ft | 24 kts | 164° |
| 2026-05-07 17:32 | -34.82058 | -58.52871 | 86 ft | 24 kts | 107° |
| 2026-05-07 17:32 | -34.82096 | -58.52673 | 83 ft | 24 kts | 103° |
| 2026-05-07 17:32 | -34.82122 | -58.52543 | 83 ft | 24 kts | 103° |
| 2026-05-07 17:33 | -34.82174 | -58.52279 | 80 ft | 24 kts | 103° |
| 2026-05-07 17:33 | -34.82212 | -58.52082 | 84 ft | 24 kts | 103° |
| 2026-05-07 17:33 | -34.82251 | -58.51884 | 82 ft | 24 kts | 103° |
| 2026-05-07 17:33 | -34.82337 | -58.51792 | 84 ft | 13 kts | 184° |
| 2026-05-07 17:34 | -34.82426 | -58.51810 | 87 ft | 13 kts | 190° |
| 2026-05-07 17:34 | -34.82506 | -58.51855 | 91 ft | 13 kts | 234° |
| 2026-05-07 17:34 | -34.82513 | -58.51962 | 89 ft | 14 kts | 282° |
| 2026-05-07 17:34 | -34.82456 | -58.52277 | 86 ft | 71 kts | 282° |
| 2026-05-07 17:35 | -34.82305 | -58.53112 | 87 ft | 129 kts | 282° |
| 2026-05-07 17:35 | -34.82077 | -58.54356 | 202 ft | 161 kts | 282° |
| 2026-05-07 17:35 | -34.81822 | -58.55668 | 761 ft | 161 kts | 280° |
| 2026-05-07 17:35 | -34.81589 | -58.57014 | 1293 ft | 163 kts | 277° |
| 2026-05-07 17:36 | -34.81373 | -58.58376 | 1835 ft | 168 kts | 277° |
| 2026-05-07 17:36 | -34.81118 | -58.59854 | 2122 ft | 189 kts | 278° |
| 2026-05-07 17:36 | -34.80903 | -58.61500 | 2328 ft | 212 kts | 274° |
| 2026-05-07 17:36 | -34.80721 | -58.63394 | 2618 ft | 233 kts | 274° |
| 2026-05-07 17:37 | -34.80532 | -58.65367 | 3328 ft | 240 kts | 274° |
| 2026-05-07 17:37 | -34.80336 | -58.67388 | 4166 ft | 241 kts | 275° |
| 2026-05-07 17:37 | -34.80134 | -58.69430 | 4908 ft | 247 kts | 276° |
| 2026-05-07 17:37 | -34.79925 | -58.71520 | 5648 ft | 252 kts | 277° |
| 2026-05-07 17:38 | -34.79709 | -58.73646 | 6397 ft | 254 kts | 278° |
| 2026-05-07 17:38 | -34.79490 | -58.75788 | 7118 ft | 257 kts | 278° |
| 2026-05-07 17:38 | -34.79264 | -58.77979 | 7766 ft | 263 kts | 278° |
| 2026-05-07 17:38 | -34.79035 | -58.80193 | 8498 ft | 265 kts | 279° |
| 2026-05-07 17:39 | -34.78804 | -58.82419 | 9237 ft | 267 kts | 279° |
| 2026-05-07 17:39 | -34.78569 | -58.84673 | 9919 ft | 270 kts | 279° |
| 2026-05-07 17:39 | -34.78326 | -58.86978 | 10243 ft | 289 kts | 279° |
| 2026-05-07 17:39 | -34.78059 | -58.89506 | 10434 ft | 313 kts | 278° |
| 2026-05-07 17:40 | -34.77771 | -58.92239 | 10636 ft | 338 kts | 278° |
| 2026-05-07 17:40 | -34.77465 | -58.95144 | 11232 ft | 351 kts | 278° |
| 2026-05-07 17:40 | -34.77152 | -58.98110 | 12096 ft | 355 kts | 278° |
| 2026-05-07 17:40 | -34.76945 | -59.00084 | 12740 ft | 356 kts | 278° |
| 2026-05-07 17:41 | -34.76630 | -59.03077 | 13746 ft | 357 kts | 278° |
| 2026-05-07 17:41 | -34.76315 | -59.06051 | 14812 ft | 354 kts | 279° |
| 2026-05-07 17:41 | -34.75998 | -59.09040 | 15601 ft | 359 kts | 279° |
| 2026-05-07 17:41 | -34.75673 | -59.12071 | 16290 ft | 365 kts | 280° |
| 2026-05-07 17:42 | -34.75343 | -59.15150 | 17050 ft | 369 kts | 281° |
| 2026-05-07 17:42 | -34.75009 | -59.18258 | 17843 ft | 372 kts | 281° |
| 2026-05-07 17:42 | -34.74672 | -59.21389 | 18530 ft | 375 kts | 282° |
| 2026-05-07 17:42 | -34.74332 | -59.24540 | 19233 ft | 376 kts | 282° |
| 2026-05-07 17:43 | -34.73991 | -59.27702 | 19939 ft | 378 kts | 283° |
| 2026-05-07 17:43 | -34.73646 | -59.30883 | 20617 ft | 381 kts | 284° |
| 2026-05-07 17:43 | -34.73299 | -59.34084 | 21385 ft | 381 kts | 285° |
| 2026-05-07 17:43 | -34.72954 | -59.37248 | 22018 ft | 385 kts | 285° |
| 2026-05-07 17:44 | -34.72597 | -59.40500 | 22541 ft | 391 kts | 285° |
| 2026-05-07 17:44 | -34.72235 | -59.43793 | 23083 ft | 396 kts | 286° |
| 2026-05-07 17:44 | -34.71868 | -59.47128 | 23590 ft | 400 kts | 287° |
| 2026-05-07 17:44 | -34.71499 | -59.50499 | 24109 ft | 403 kts | 287° |
| 2026-05-07 17:45 | -34.71126 | -59.53892 | 24592 ft | 407 kts | 287° |
| 2026-05-07 17:45 | -34.70749 | -59.57318 | 25053 ft | 411 kts | 287° |
| 2026-05-07 17:45 | -34.70365 | -59.60782 | 25527 ft | 415 kts | 287° |
| 2026-05-07 17:45 | -34.69976 | -59.64253 | 25777 ft | 424 kts | 287° |
| 2026-05-07 17:46 | -34.69565 | -59.67823 | 26175 ft | 428 kts | 288° |
| 2026-05-07 17:46 | -34.69140 | -59.71418 | 26708 ft | 430 kts | 288° |
| 2026-05-07 17:46 | -34.68711 | -59.75020 | 27209 ft | 432 kts | 288° |
| 2026-05-07 17:46 | -34.68277 | -59.78647 | 27647 ft | 436 kts | 288° |
| 2026-05-07 17:47 | -34.67837 | -59.82317 | 28057 ft | 440 kts | 288° |
| 2026-05-07 17:47 | -34.67393 | -59.86017 | 28479 ft | 443 kts | 289° |
| 2026-05-07 17:47 | -34.66951 | -59.89722 | 29013 ft | 445 kts | 288° |
| 2026-05-07 17:47 | -34.66501 | -59.93472 | 29158 ft | 453 kts | 288° |
| 2026-05-07 17:48 | -34.66041 | -59.97277 | 29451 ft | 457 kts | 288° |
| 2026-05-07 17:48 | -34.65582 | -60.01101 | 29896 ft | 457 kts | 287° |
| 2026-05-07 17:48 | -34.65126 | -60.04914 | 30383 ft | 454 kts | 287° |
| 2026-05-07 17:48 | -34.64674 | -60.08697 | 30909 ft | 451 kts | 287° |
| 2026-05-07 17:49 | -34.64220 | -60.12463 | 31398 ft | 449 kts | 287° |
| 2026-05-07 17:49 | -34.63772 | -60.16159 | 31829 ft | 448 kts | 287° |
| 2026-05-07 17:49 | -34.63316 | -60.19899 | 32215 ft | 449 kts | 285° |
| 2026-05-07 17:49 | -34.62854 | -60.23655 | 32487 ft | 451 kts | 285° |
| 2026-05-07 17:50 | -34.62390 | -60.27415 | 32875 ft | 450 kts | 285° |
| 2026-05-07 17:50 | -34.61928 | -60.31169 | 33313 ft | 448 kts | 285° |
| 2026-05-07 17:50 | -34.61467 | -60.34916 | 33705 ft | 447 kts | 285° |
| 2026-05-07 17:50 | -34.61000 | -60.38675 | 33705 ft | 453 kts | 285° |
| 2026-05-07 17:51 | -34.60056 | -60.46251 | 33754 ft | 458 kts | 285° |
| 2026-05-07 17:51 | -34.59108 | -60.53873 | 33735 ft | 455 kts | 284° |
| 2026-05-07 17:52 | -34.58161 | -60.61453 | 33731 ft | 453 kts | 284° |
| 2026-05-07 17:52 | -34.57208 | -60.69007 | 33737 ft | 452 kts | 284° |
| 2026-05-07 17:53 | -34.56252 | -60.76544 | 33792 ft | 452 kts | 283° |
| 2026-05-07 17:53 | -34.55289 | -60.84104 | 33755 ft | 453 kts | 283° |
| 2026-05-07 17:54 | -34.54322 | -60.91671 | 33754 ft | 454 kts | 283° |
| 2026-05-07 17:54 | -34.53270 | -60.99160 | 33760 ft | 453 kts | 284° |
| 2026-05-07 17:55 | -34.52082 | -61.06670 | 33777 ft | 453 kts | 284° |
| 2026-05-07 17:55 | -34.50894 | -61.14183 | 33768 ft | 454 kts | 283° |
| 2026-05-07 17:56 | -34.49719 | -61.21714 | 33765 ft | 455 kts | 283° |
| 2026-05-07 17:56 | -34.48543 | -61.29253 | 33768 ft | 455 kts | 283° |
| 2026-05-07 17:57 | -34.47560 | -61.35528 | 33787 ft | 456 kts | 283° |
| 2026-05-07 17:57 | -34.46178 | -61.44318 | 33772 ft | 457 kts | 283° |
| 2026-05-07 17:58 | -34.44980 | -61.51904 | 33775 ft | 458 kts | 283° |
| 2026-05-07 17:58 | -34.43771 | -61.59484 | 33772 ft | 458 kts | 283° |
| 2026-05-07 17:59 | -34.42546 | -61.67062 | 33783 ft | 458 kts | 283° |
| 2026-05-07 17:59 | -34.41318 | -61.74643 | 33786 ft | 458 kts | 283° |
| 2026-05-07 18:00 | -34.40087 | -61.82221 | 33789 ft | 458 kts | 283° |
| 2026-05-07 18:00 | -34.38860 | -61.89740 | 33791 ft | 458 kts | 283° |
| 2026-05-07 18:01 | -34.37619 | -61.97315 | 33795 ft | 460 kts | 283° |
| 2026-05-07 18:01 | -34.36368 | -62.04930 | 33802 ft | 462 kts | 283° |
| 2026-05-07 18:02 | -34.34472 | -62.16415 | 33788 ft | 464 kts | 283° |
| 2026-05-07 18:03 | -34.33206 | -62.24071 | 33815 ft | 465 kts | 283° |
| 2026-05-07 18:03 | -34.31937 | -62.31709 | 33807 ft | 467 kts | 283° |
| 2026-05-07 18:04 | -34.30650 | -62.39436 | 33806 ft | 469 kts | 283° |
| 2026-05-07 18:04 | -34.29356 | -62.47174 | 33809 ft | 470 kts | 283° |
| 2026-05-07 18:05 | -34.28052 | -62.54926 | 33827 ft | 470 kts | 281° |
| 2026-05-07 18:05 | -34.26752 | -62.62634 | 33811 ft | 470 kts | 281° |
| 2026-05-07 18:06 | -34.25445 | -62.70361 | 33804 ft | 468 kts | 282° |
| 2026-05-07 18:06 | -34.24135 | -62.78063 | 33822 ft | 467 kts | 282° |
| 2026-05-07 18:07 | -34.22820 | -62.85757 | 33837 ft | 467 kts | 281° |
| 2026-05-07 18:07 | -34.21501 | -62.93454 | 33830 ft | 468 kts | 281° |
| 2026-05-07 18:08 | -34.20175 | -63.01168 | 33837 ft | 469 kts | 281° |
| 2026-05-07 18:08 | -34.18840 | -63.08896 | 33845 ft | 469 kts | 281° |
| 2026-05-07 18:09 | -34.17497 | -63.16633 | 33835 ft | 471 kts | 279° |
| 2026-05-07 18:09 | -34.16148 | -63.24388 | 33844 ft | 473 kts | 279° |
| 2026-05-07 18:10 | -34.14798 | -63.32121 | 33856 ft | 474 kts | 280° |
| 2026-05-07 18:10 | -34.13396 | -63.39909 | 33862 ft | 475 kts | 281° |
| 2026-05-07 18:11 | -34.11856 | -63.47674 | 33851 ft | 477 kts | 280° |
| 2026-05-07 18:11 | -34.10292 | -63.55475 | 33876 ft | 479 kts | 280° |
| 2026-05-07 18:12 | -34.08737 | -63.63307 | 33874 ft | 481 kts | 280° |
| 2026-05-07 18:12 | -34.07177 | -63.71171 | 33876 ft | 483 kts | 280° |
| 2026-05-07 18:13 | -34.05607 | -63.79052 | 33875 ft | 484 kts | 279° |
| 2026-05-07 18:13 | -34.04030 | -63.86947 | 33877 ft | 483 kts | 279° |
| 2026-05-07 18:14 | -34.02464 | -63.94791 | 33881 ft | 483 kts | 279° |
| 2026-05-07 18:14 | -34.00893 | -64.02661 | 33892 ft | 482 kts | 279° |
| 2026-05-07 18:15 | -33.99319 | -64.10513 | 33888 ft | 481 kts | 278° |
| 2026-05-07 18:15 | -33.97743 | -64.18350 | 33899 ft | 481 kts | 278° |
| 2026-05-07 18:16 | -33.96171 | -64.26143 | 33898 ft | 482 kts | 278° |
| 2026-05-07 18:16 | -33.94583 | -64.33982 | 33902 ft | 482 kts | 278° |
| 2026-05-07 18:17 | -33.92989 | -64.41821 | 33900 ft | 482 kts | 277° |
| 2026-05-07 18:17 | -33.91392 | -64.49661 | 33911 ft | 483 kts | 277° |
| 2026-05-07 18:18 | -33.89943 | -64.57540 | 33917 ft | 481 kts | 274° |
| 2026-05-07 18:18 | -33.88696 | -64.65455 | 33920 ft | 481 kts | 274° |
| 2026-05-07 18:19 | -33.87443 | -64.73373 | 33923 ft | 482 kts | 274° |
| 2026-05-07 18:19 | -33.86154 | -64.81264 | 33924 ft | 483 kts | 274° |
| 2026-05-07 18:20 | -33.84835 | -64.89194 | 33926 ft | 483 kts | 275° |
| 2026-05-07 18:20 | -33.83509 | -64.97113 | 33925 ft | 483 kts | 275° |
| 2026-05-07 18:21 | -33.82180 | -65.05022 | 33923 ft | 483 kts | 273° |
| 2026-05-07 18:21 | -33.80847 | -65.12948 | 33934 ft | 484 kts | 273° |
| 2026-05-07 18:22 | -33.79516 | -65.20827 | 33936 ft | 485 kts | 273° |
| 2026-05-07 18:22 | -33.78167 | -65.28777 | 33937 ft | 485 kts | 273° |
| 2026-05-07 18:23 | -33.76810 | -65.36735 | 33931 ft | 486 kts | 272° |
| 2026-05-07 18:23 | -33.75444 | -65.44718 | 33942 ft | 488 kts | 272° |
| 2026-05-07 18:24 | -33.74071 | -65.52711 | 33965 ft | 489 kts | 272° |
| 2026-05-07 18:24 | -33.72690 | -65.60714 | 33953 ft | 489 kts | 272° |
| 2026-05-07 18:25 | -33.71313 | -65.68659 | 33946 ft | 489 kts | 271° |
| 2026-05-07 18:25 | -33.69922 | -65.76656 | 33952 ft | 489 kts | 271° |
| 2026-05-07 18:26 | -33.68526 | -65.84655 | 33954 ft | 490 kts | 271° |
| 2026-05-07 18:26 | -33.67123 | -65.92654 | 33958 ft | 490 kts | 271° |
| 2026-05-07 18:27 | -33.65714 | -66.00654 | 33951 ft | 489 kts | 270° |
| 2026-05-07 18:27 | -33.64302 | -66.08648 | 33965 ft | 489 kts | 270° |
| 2026-05-07 18:28 | -33.63124 | -66.15288 | 33955 ft | 489 kts | 270° |
| 2026-05-07 18:28 | -33.61470 | -66.24577 | 33944 ft | 489 kts | 270° |
| 2026-05-07 18:29 | -33.60275 | -66.31249 | 33966 ft | 488 kts | 269° |
| 2026-05-07 18:29 | -33.58848 | -66.39207 | 33965 ft | 488 kts | 269° |
| 2026-05-07 18:30 | -33.57416 | -66.47163 | 33960 ft | 488 kts | 269° |
| 2026-05-07 18:30 | -33.55979 | -66.55107 | 33963 ft | 488 kts | 269° |
| 2026-05-07 18:31 | -33.54537 | -66.63039 | 33963 ft | 485 kts | 269° |
| 2026-05-07 18:31 | -33.53097 | -66.70934 | 33964 ft | 484 kts | 269° |
| 2026-05-07 18:32 | -33.51669 | -66.78747 | 33961 ft | 482 kts | 269° |
| 2026-05-07 18:32 | -33.50230 | -66.86589 | 33943 ft | 482 kts | 269° |
| 2026-05-07 18:33 | -33.48787 | -66.94418 | 33956 ft | 479 kts | 268° |
| 2026-05-07 18:33 | -33.47348 | -67.02197 | 33958 ft | 478 kts | 268° |
| 2026-05-07 18:34 | -33.45909 | -67.09956 | 33967 ft | 477 kts | 268° |
| 2026-05-07 18:34 | -33.44465 | -67.17705 | 33961 ft | 476 kts | 268° |
| 2026-05-07 18:35 | -33.43019 | -67.25437 | 33950 ft | 475 kts | 268° |
| 2026-05-07 18:35 | -33.41573 | -67.33137 | 33961 ft | 474 kts | 268° |
| 2026-05-07 18:36 | -33.40125 | -67.40829 | 33966 ft | 474 kts | 268° |
| 2026-05-07 18:36 | -33.38682 | -67.48469 | 33963 ft | 474 kts | 268° |
| 2026-05-07 18:37 | -33.37223 | -67.56165 | 33917 ft | 474 kts | 268° |
| 2026-05-07 18:37 | -33.35759 | -67.63853 | 33948 ft | 474 kts | 268° |
| 2026-05-07 18:38 | -33.34288 | -67.71561 | 33962 ft | 475 kts | 268° |
| 2026-05-07 18:38 | -33.32809 | -67.79275 | 33953 ft | 476 kts | 268° |
| 2026-05-07 18:39 | -33.31324 | -67.86999 | 33960 ft | 477 kts | 268° |
| 2026-05-07 18:39 | -33.29835 | -67.94732 | 33956 ft | 477 kts | 268° |
| 2026-05-07 18:40 | -33.28341 | -68.02462 | 33955 ft | 477 kts | 268° |
| 2026-05-07 18:40 | -33.26855 | -68.10127 | 33957 ft | 477 kts | 268° |
| 2026-05-07 18:41 | -33.25354 | -68.17840 | 33939 ft | 477 kts | 268° |
| 2026-05-07 18:41 | -33.23849 | -68.25552 | 33945 ft | 476 kts | 269° |
| 2026-05-07 18:42 | -33.22336 | -68.33279 | 33953 ft | 478 kts | 269° |
| 2026-05-07 18:42 | -33.20813 | -68.41031 | 33964 ft | 480 kts | 269° |
| 2026-05-07 18:43 | -33.19276 | -68.48816 | 33966 ft | 482 kts | 269° |
| 2026-05-07 18:43 | -33.17736 | -68.56601 | 33954 ft | 482 kts | 269° |
| 2026-05-07 18:44 | -33.16188 | -68.64375 | 33963 ft | 482 kts | 269° |
| 2026-05-07 18:44 | -33.14629 | -68.72153 | 33968 ft | 481 kts | 269° |
| 2026-05-07 18:45 | -33.13080 | -68.79865 | 33969 ft | 480 kts | 269° |
| 2026-05-07 18:45 | -33.11521 | -68.87614 | 33951 ft | 480 kts | 269° |
| 2026-05-07 18:46 | -33.09958 | -68.95350 | 33972 ft | 479 kts | 270° |
| 2026-05-07 18:46 | -33.08393 | -69.03071 | 33985 ft | 479 kts | 270° |
| 2026-05-07 18:47 | -33.06826 | -69.10784 | 33994 ft | 479 kts | 270° |
| 2026-05-07 18:47 | -33.05248 | -69.18526 | 33989 ft | 481 kts | 270° |
| 2026-05-07 18:48 | -33.03663 | -69.26248 | 34000 ft | 478 kts | 270° |
| 2026-05-07 18:48 | -33.02094 | -69.33883 | 34003 ft | 476 kts | 270° |
| 2026-05-07 18:49 | -33.00519 | -69.41522 | 33685 ft | 478 kts | 270° |
| 2026-05-07 18:49 | -32.99727 | -69.45433 | 32774 ft | 487 kts | 271° |
| 2026-05-07 18:49 | -32.98921 | -69.49321 | 32074 ft | 481 kts | 271° |
| 2026-05-07 18:49 | -32.98120 | -69.53167 | 31508 ft | 476 kts | 271° |
| 2026-05-07 18:50 | -32.97291 | -69.56980 | 30878 ft | 472 kts | 272° |
| 2026-05-07 18:50 | -32.96494 | -69.60736 | 30273 ft | 465 kts | 271° |
| 2026-05-07 18:50 | -32.95676 | -69.64449 | 29595 ft | 458 kts | 272° |
| 2026-05-07 18:50 | -32.94908 | -69.68100 | 29130 ft | 451 kts | 271° |
| 2026-05-07 18:51 | -32.94191 | -69.71737 | 28521 ft | 451 kts | 271° |
| 2026-05-07 18:51 | -32.93467 | -69.75367 | 27927 ft | 450 kts | 272° |
| 2026-05-07 18:51 | -32.92729 | -69.78973 | 27368 ft | 447 kts | 272° |
| 2026-05-07 18:51 | -32.91979 | -69.82561 | 26869 ft | 445 kts | 273° |
| 2026-05-07 18:52 | -32.91237 | -69.86093 | 26303 ft | 443 kts | 273° |
| 2026-05-07 18:52 | -32.90490 | -69.89637 | 25749 ft | 439 kts | 274° |
| 2026-05-07 18:52 | -32.89746 | -69.93144 | 25253 ft | 434 kts | 274° |
| 2026-05-07 18:52 | -32.89011 | -69.96604 | 24721 ft | 430 kts | 274° |
| 2026-05-07 18:53 | -32.88293 | -70.00028 | 24224 ft | 423 kts | 273° |
| 2026-05-07 18:53 | -32.87766 | -70.03439 | 23601 ft | 414 kts | 269° |
| 2026-05-07 18:53 | -32.87462 | -70.06831 | 22945 ft | 410 kts | 266° |
| 2026-05-07 18:53 | -32.87239 | -70.10201 | 22334 ft | 407 kts | 265° |
| 2026-05-07 18:54 | -32.87010 | -70.13552 | 21763 ft | 408 kts | 266° |
| 2026-05-07 18:54 | -32.86753 | -70.16868 | 21123 ft | 407 kts | 266° |
| 2026-05-07 18:54 | -32.86478 | -70.20203 | 20616 ft | 403 kts | 267° |
| 2026-05-07 18:54 | -32.86173 | -70.23524 | 19996 ft | 404 kts | 267° |
| 2026-05-07 18:55 | -32.85859 | -70.26835 | 19467 ft | 402 kts | 267° |
| 2026-05-07 18:55 | -32.85553 | -70.30142 | 18919 ft | 403 kts | 267° |
| 2026-05-07 18:55 | -32.85244 | -70.33468 | 18288 ft | 406 kts | 268° |
| 2026-05-07 18:55 | -32.84937 | -70.36833 | 17499 ft | 409 kts | 268° |
| 2026-05-07 18:56 | -32.84673 | -70.40168 | 16801 ft | 406 kts | 269° |
| 2026-05-07 18:56 | -32.84343 | -70.43507 | 16216 ft | 406 kts | 270° |
| 2026-05-07 18:56 | -32.84009 | -70.46792 | 15647 ft | 404 kts | 271° |
| 2026-05-07 18:56 | -32.83686 | -70.50103 | 15104 ft | 401 kts | 271° |
| 2026-05-07 18:57 | -32.83377 | -70.53394 | 14561 ft | 399 kts | 272° |
| 2026-05-07 18:57 | -32.83070 | -70.56607 | 14472 ft | 383 kts | 271° |
| 2026-05-07 18:57 | -32.82776 | -70.59690 | 14378 ft | 368 kts | 271° |
| 2026-05-07 18:57 | -32.82493 | -70.62662 | 14280 ft | 354 kts | 271° |
| 2026-05-07 18:58 | -32.82220 | -70.65520 | 14195 ft | 341 kts | 271° |
| 2026-05-07 18:58 | -32.82159 | -70.68225 | 14042 ft | 316 kts | 254° |
| 2026-05-07 18:58 | -32.82866 | -70.70555 | 13850 ft | 294 kts | 236° |
| 2026-05-07 18:58 | -32.84011 | -70.72458 | 13208 ft | 277 kts | 223° |
| 2026-05-07 18:59 | -32.85393 | -70.74038 | 12250 ft | 277 kts | 219° |
| 2026-05-07 18:59 | -32.86847 | -70.75587 | 11262 ft | 281 kts | 219° |
| 2026-05-07 18:59 | -32.88297 | -70.77147 | 10458 ft | 280 kts | 220° |
| 2026-05-07 18:59 | -32.89693 | -70.78676 | 10061 ft | 265 kts | 220° |
| 2026-05-07 19:00 | -32.91057 | -70.80134 | 9584 ft | 260 kts | 214° |
| 2026-05-07 19:00 | -32.92703 | -70.80993 | 9306 ft | 264 kts | 187° |
| 2026-05-07 19:00 | -32.94554 | -70.81005 | 9011 ft | 267 kts | 175° |
| 2026-05-07 19:00 | -32.96417 | -70.80878 | 8695 ft | 268 kts | 176° |
| 2026-05-07 19:01 | -32.98268 | -70.80777 | 8381 ft | 264 kts | 177° |
| 2026-05-07 19:01 | -33.00092 | -70.80682 | 8074 ft | 260 kts | 177° |
| 2026-05-07 19:01 | -33.01874 | -70.80585 | 7823 ft | 260 kts | 177° |
| 2026-05-07 19:01 | -33.03698 | -70.80480 | 7539 ft | 265 kts | 176° |
| 2026-05-07 19:02 | -33.05571 | -70.80369 | 7232 ft | 273 kts | 177° |
| 2026-05-07 19:02 | -33.07490 | -70.80264 | 6937 ft | 278 kts | 177° |
| 2026-05-07 19:02 | -33.09427 | -70.80162 | 6633 ft | 278 kts | 178° |
| 2026-05-07 19:02 | -33.11347 | -70.80061 | 6290 ft | 274 kts | 178° |
| 2026-05-07 19:03 | -33.13221 | -70.79962 | 5983 ft | 268 kts | 178° |
| 2026-05-07 19:03 | -33.15063 | -70.79866 | 5674 ft | 262 kts | 177° |
| 2026-05-07 19:03 | -33.16866 | -70.79769 | 5389 ft | 256 kts | 177° |
| 2026-05-07 19:03 | -33.18631 | -70.79675 | 5117 ft | 250 kts | 178° |
| 2026-05-07 19:04 | -33.20347 | -70.79586 | 4864 ft | 244 kts | 177° |
| 2026-05-07 19:04 | -33.22034 | -70.79498 | 4504 ft | 240 kts | 178° |
| 2026-05-07 19:04 | -33.23665 | -70.79410 | 4189 ft | 234 kts | 178° |
| 2026-05-07 19:04 | -33.25236 | -70.79324 | 4052 ft | 217 kts | 178° |
| 2026-05-07 19:05 | -33.26719 | -70.79248 | 3750 ft | 209 kts | 178° |
| 2026-05-07 19:05 | -33.28132 | -70.79171 | 3490 ft | 197 kts | 178° |
| 2026-05-07 19:05 | -33.29450 | -70.79104 | 3221 ft | 181 kts | 178° |
| 2026-05-07 19:05 | -33.30652 | -70.79039 | 2962 ft | 166 kts | 178° |
| 2026-05-07 19:06 | -33.31753 | -70.78979 | 2751 ft | 152 kts | 178° |
| 2026-05-07 19:06 | -33.33863 | -70.78867 | 2331 ft | 152 kts | 178° |
| 2026-05-07 19:06 | -33.34923 | -70.78814 | 2126 ft | 151 kts | 178° |
| 2026-05-07 19:07 | -33.35968 | -70.78757 | 1918 ft | 151 kts | 178° |
| 2026-05-07 19:07 | -33.37014 | -70.78702 | 1719 ft | 151 kts | 178° |
| 2026-05-07 19:07 | -33.38047 | -70.78650 | 1577 ft | 147 kts | 178° |
| 2026-05-07 19:07 | -33.38951 | -70.78598 | 1570 ft | 106 kts | 177° |
| 2026-05-07 19:08 | -33.39475 | -70.78586 | 1568 ft | 46 kts | 189° |
| 2026-05-07 19:08 | -33.39711 | -70.78710 | 1569 ft | 25 kts | 206° |
| 2026-05-07 19:08 | -33.39786 | -70.78755 | 1569 ft | 9 kts | 206° |
| 2026-05-07 19:08 | -33.39843 | -70.78790 | 1569 ft | 9 kts | 208° |
| 2026-05-07 19:09 | -33.39899 | -70.78825 | 1569 ft | 9 kts | 207° |
| 2026-05-07 19:09 | -33.39956 | -70.78860 | 1569 ft | 9 kts | 206° |
| 2026-05-07 19:09 | -33.40021 | -70.78862 | 1568 ft | 10 kts | 178° |
| 2026-05-07 19:09 | -33.40092 | -70.78859 | 1568 ft | 11 kts | 179° |
| 2026-05-07 19:10 | -33.40173 | -70.78856 | 1568 ft | 12 kts | 178° |
| 2026-05-07 19:10 | -33.40253 | -70.78853 | 1568 ft | 12 kts | 178° |
| 2026-05-07 19:10 | -33.40333 | -70.78850 | 1568 ft | 12 kts | 178° |
| 2026-05-07 19:10 | -33.40409 | -70.78847 | 1568 ft | 12 kts | 178° |
| 2026-05-07 19:11 | -33.40483 | -70.78875 | 1568 ft | 12 kts | 220° |
| 2026-05-07 19:11 | -33.40526 | -70.78925 | 1568 ft | 4 kts | 225° |
| 2026-05-07 19:11 | -33.40534 | -70.78935 | 1568 ft | 0 kts | 225° |
| 2026-05-07 19:11 | -33.40535 | -70.78935 | 1568 ft | 0 kts | 225° |